createdAt,value
2022-12-11T00:01:30.409Z,17.80
2022-12-11T00:03:56.883Z,16.37
2022-12-11T00:06:23.585Z,14.93
2022-12-11T00:08:54.138Z,16.27
2022-12-11T00:11:21.229Z,14.67
2022-12-11T00:13:47.849Z,12.97
2022-12-11T00:16:14.760Z,12.03
2022-12-11T00:18:41.247Z,15.37
2022-12-11T00:21:08.487Z,13.53
2022-12-11T00:23:35.523Z,12.27
2022-12-11T00:26:05.126Z,12.40
2022-12-11T00:28:31.808Z,13.80
2022-12-11T00:30:58.314Z,13.97
2022-12-11T00:33:26.870Z,13.00
2022-12-11T00:35:53.475Z,12.50
2022-12-11T00:38:21.759Z,13.73
2022-12-11T00:40:49.197Z,14.80
2022-12-11T00:43:16.060Z,14.80
2022-12-11T00:45:43.597Z,14.73
2022-12-11T00:48:10.551Z,15.23
2022-12-11T00:50:37.567Z,15.53
2022-12-11T00:53:04.876Z,16.80
2022-12-11T00:55:31.539Z,15.93
2022-12-11T00:57:58.485Z,15.53
2022-12-11T01:00:25.274Z,15.73
2022-12-11T01:02:51.800Z,16.77
2022-12-11T01:05:18.411Z,15.30
2022-12-11T01:07:44.954Z,15.37
2022-12-11T01:10:26.620Z,15.37
2022-12-11T01:12:56.288Z,15.60
2022-12-11T01:15:24.043Z,15.93
2022-12-11T01:17:50.885Z,16.10
2022-12-11T01:20:17.679Z,16.63
2022-12-11T01:22:44.349Z,16.50
2022-12-11T01:25:11.337Z,16.37
2022-12-11T01:27:38.325Z,17.57
2022-12-11T01:30:05.899Z,18.00
2022-12-11T01:32:32.772Z,19.10
2022-12-11T01:34:59.350Z,19.77
2022-12-11T01:37:25.826Z,17.10
2022-12-11T01:39:52.374Z,15.07
2022-12-11T01:42:19.289Z,14.93
2022-12-11T01:44:45.696Z,15.60
2022-12-11T01:47:12.596Z,15.40
2022-12-11T01:49:40.441Z,14.97
2022-12-11T01:52:13.971Z,15.80
2022-12-11T01:54:41.534Z,16.70
2022-12-11T01:57:08.777Z,16.37
2022-12-11T01:59:36.521Z,17.07
2022-12-11T02:02:06.295Z,16.60
2022-12-11T02:04:34.079Z,16.53
2022-12-11T02:07:00.769Z,16.17
2022-12-11T02:09:28.516Z,15.13
2022-12-11T02:12:04.399Z,14.67
2022-12-11T02:14:47.495Z,13.67
2022-12-11T02:17:22.496Z,11.93
2022-12-11T02:20:07.595Z,11.60
2022-12-11T02:22:34.235Z,11.03
2022-12-11T02:25:06.664Z,10.43
2022-12-11T02:27:41.182Z,10.87
2022-12-11T02:30:09.107Z,10.53
2022-12-11T02:32:45.482Z,11.13
2022-12-11T02:35:35.337Z,11.27
2022-12-11T02:38:05.596Z,10.93
2022-12-11T02:40:35.011Z,11.50
2022-12-11T02:43:03.367Z,11.37
2022-12-11T02:45:30.971Z,11.23
2022-12-11T02:47:58.835Z,9.70
2022-12-11T02:50:26.047Z,10.83
2022-12-11T02:52:54.399Z,10.03
2022-12-11T02:55:20.968Z,10.53
2022-12-11T02:57:47.758Z,10.27
2022-12-11T03:00:14.665Z,10.57
2022-12-11T03:02:41.287Z,11.67
2022-12-11T03:05:08.754Z,11.40
2022-12-11T03:07:36.697Z,11.53
2022-12-11T03:10:04.230Z,11.30
2022-12-11T03:12:32.258Z,11.00
2022-12-11T03:14:59.722Z,11.50
2022-12-11T03:17:35.531Z,12.60
2022-12-11T03:20:02.030Z,13.37
2022-12-11T03:22:37.065Z,15.10
2022-12-11T03:25:07.151Z,15.10
2022-12-11T03:27:36.937Z,15.30
2022-12-11T03:30:08.681Z,14.00
2022-12-11T03:32:38.576Z,14.37
2022-12-11T03:35:12.746Z,13.33
2022-12-11T03:37:40.589Z,12.43
2022-12-11T03:40:10.895Z,13.00
2022-12-11T03:42:38.400Z,11.90
2022-12-11T03:45:05.237Z,12.47
2022-12-11T03:47:32.354Z,11.03
2022-12-11T03:49:59.651Z,10.47
2022-12-11T03:52:27.429Z,11.30
2022-12-11T03:54:55.588Z,10.77
2022-12-11T03:57:24.855Z,10.73
2022-12-11T03:59:51.321Z,11.27
2022-12-11T04:02:17.823Z,11.10
2022-12-11T04:04:44.294Z,10.70
2022-12-11T04:07:10.740Z,10.70
2022-12-11T04:09:37.184Z,13.77
2022-12-11T04:12:03.692Z,15.83
2022-12-11T04:14:48.754Z,17.77
2022-12-11T04:17:35.171Z,19.77
2022-12-11T04:20:20.386Z,19.37
2022-12-11T04:23:05.700Z,20.30
2022-12-11T04:25:32.132Z,19.90
2022-12-11T04:27:58.594Z,18.20
2022-12-11T04:30:30.790Z,17.93
2022-12-11T04:33:00.448Z,17.63
2022-12-11T04:35:26.961Z,17.43
2022-12-11T04:37:53.375Z,18.03
2022-12-11T04:40:20.478Z,16.93
2022-12-11T04:42:46.926Z,16.23
2022-12-11T04:45:13.839Z,16.37
2022-12-11T04:47:41.059Z,15.30
2022-12-11T04:50:08.513Z,13.97
2022-12-11T04:52:35.138Z,14.00
2022-12-11T04:55:01.586Z,13.83
2022-12-11T04:57:28.100Z,13.17
2022-12-11T04:59:54.531Z,12.83
2022-12-11T05:02:21.231Z,12.80
2022-12-11T05:04:47.780Z,13.70
2022-12-11T05:07:14.393Z,12.83
2022-12-11T05:09:40.931Z,12.80
2022-12-11T05:12:07.391Z,12.97
2022-12-11T05:14:33.902Z,13.97
2022-12-11T05:17:00.435Z,12.70
2022-12-11T05:19:27.347Z,13.13
2022-12-11T05:21:53.794Z,13.60
2022-12-11T05:24:20.241Z,13.93
2022-12-11T05:26:46.691Z,13.77
2022-12-11T05:29:14.071Z,13.17
2022-12-11T05:31:40.588Z,19.70
2022-12-11T05:34:07.146Z,21.37
2022-12-11T05:36:33.989Z,24.77
2022-12-11T05:39:01.085Z,24.97
2022-12-11T05:41:29.815Z,26.40
2022-12-11T05:43:56.307Z,23.30
2022-12-11T05:46:24.432Z,17.83
2022-12-11T05:48:51.710Z,17.90
2022-12-11T05:51:18.506Z,17.90
2022-12-11T05:53:45.624Z,17.07
2022-12-11T05:56:13.208Z,15.70
2022-12-11T05:58:40.173Z,15.33
2022-12-11T06:01:10.810Z,16.43
2022-12-11T06:03:37.817Z,16.10
2022-12-11T06:06:05.111Z,16.70
2022-12-11T06:08:32.043Z,22.20
2022-12-11T06:10:58.487Z,22.30
2022-12-11T06:13:24.932Z,19.37
2022-12-11T06:15:51.462Z,16.50
2022-12-11T06:18:17.920Z,16.53
2022-12-11T06:20:44.549Z,15.43
2022-12-11T06:23:10.990Z,16.20
2022-12-11T06:25:40.663Z,24.03
2022-12-11T06:28:07.188Z,28.97
2022-12-11T06:30:38.612Z,25.23
2022-12-11T06:33:06.208Z,25.07
2022-12-11T06:35:41.678Z,24.77
2022-12-11T06:38:09.299Z,23.80
2022-12-11T06:40:35.894Z,24.30
2022-12-11T06:43:02.484Z,23.47
2022-12-11T06:45:29.212Z,22.37
2022-12-11T06:47:55.745Z,19.37
2022-12-11T06:50:22.313Z,18.87
2022-12-11T06:52:48.756Z,20.23
2022-12-11T06:55:15.276Z,23.57
2022-12-11T06:57:41.822Z,20.73
2022-12-11T07:00:08.582Z,20.67
2022-12-11T07:02:35.192Z,18.93
2022-12-11T07:05:01.766Z,18.23
2022-12-11T07:07:28.242Z,18.87
2022-12-11T07:09:54.693Z,21.47
2022-12-11T07:12:21.193Z,21.00
2022-12-11T07:14:47.665Z,22.33
2022-12-11T07:17:14.319Z,25.47
2022-12-11T07:19:41.039Z,27.70
2022-12-11T07:22:07.574Z,24.60
2022-12-11T07:24:33.984Z,25.37
2022-12-11T07:27:00.424Z,25.53
2022-12-11T07:29:26.861Z,24.60
2022-12-11T07:31:53.396Z,27.00
2022-12-11T07:34:19.945Z,25.17
2022-12-11T07:36:46.388Z,29.17
2022-12-11T07:39:12.984Z,26.97
2022-12-11T07:41:39.463Z,28.30
2022-12-11T07:44:05.952Z,28.20
2022-12-11T07:46:33.741Z,27.43
2022-12-11T07:49:02.938Z,26.43
2022-12-11T07:51:31.072Z,28.10
2022-12-11T07:53:58.975Z,27.60
2022-12-11T07:56:26.124Z,27.97
2022-12-11T07:58:52.674Z,28.63
2022-12-11T08:01:26.179Z,26.53
2022-12-11T08:03:53.461Z,28.60
2022-12-11T08:06:21.463Z,29.60
2022-12-11T08:08:48.084Z,27.87
2022-12-11T08:11:15.411Z,26.97
2022-12-11T08:13:42.679Z,25.93
2022-12-11T08:16:10.305Z,24.83
2022-12-11T08:18:37.183Z,27.13
2022-12-11T08:21:07.584Z,25.90
2022-12-11T08:23:34.220Z,26.17
2022-12-11T08:26:02.828Z,28.57
2022-12-11T08:28:29.225Z,29.57
2022-12-11T08:30:55.890Z,30.90
2022-12-11T08:33:22.366Z,30.63
2022-12-11T08:35:48.799Z,31.17
2022-12-11T08:38:15.472Z,28.33
2022-12-11T08:40:42.062Z,34.23
2022-12-11T08:43:08.517Z,45.13
2022-12-11T08:45:35.125Z,37.70
2022-12-11T08:48:01.639Z,36.13
2022-12-11T08:50:28.055Z,37.47
2022-12-11T08:52:54.549Z,40.97
2022-12-11T08:55:22.105Z,41.23
2022-12-11T08:57:48.527Z,42.97
2022-12-11T09:00:18.732Z,43.87
2022-12-11T09:02:45.430Z,44.93
2022-12-11T09:05:12.286Z,43.67
2022-12-11T09:07:39.523Z,44.97
2022-12-11T09:10:06.850Z,50.00
2022-12-11T09:12:34.475Z,50.67
2022-12-11T09:15:00.985Z,51.63
2022-12-11T09:17:27.532Z,46.47
2022-12-11T09:19:54.093Z,48.67
2022-12-11T09:22:20.641Z,50.30
2022-12-11T09:24:47.209Z,54.97
2022-12-11T09:27:13.712Z,55.93
2022-12-11T09:29:40.535Z,52.53
2022-12-11T09:32:07.503Z,136.60
2022-12-11T09:34:34.074Z,55.50
2022-12-11T09:37:00.626Z,38.17
2022-12-11T09:39:28.710Z,45.43
2022-12-11T09:42:15.780Z,45.33
2022-12-11T09:44:46.041Z,45.03
2022-12-11T09:47:33.276Z,53.97
2022-12-11T09:50:25.948Z,55.20
2022-12-11T09:52:55.728Z,53.20
2022-12-11T09:55:24.374Z,52.50
2022-12-11T09:58:09.503Z,52.40
2022-12-11T10:00:40.995Z,54.60
2022-12-11T10:03:27.443Z,57.93
2022-12-11T10:06:12.917Z,56.73
2022-12-11T10:08:40.204Z,56.13
2022-12-11T10:11:18.897Z,56.23
2022-12-11T10:13:48.402Z,61.53
2022-12-11T10:16:33.489Z,60.37
2022-12-11T10:19:00.589Z,61.93
2022-12-11T10:21:29.981Z,55.60
2022-12-11T10:24:01.775Z,60.30
2022-12-11T10:26:29.620Z,60.83
2022-12-11T10:29:01.099Z,82.97
2022-12-11T10:31:59.848Z,74.50
2022-12-11T10:34:26.538Z,65.27
2022-12-11T10:37:00.160Z,59.17
2022-12-11T10:39:27.211Z,156.83
2022-12-11T10:41:54.942Z,115.07
2022-12-11T10:44:22.942Z,72.53
2022-12-11T10:47:01.828Z,68.37
2022-12-11T10:49:30.199Z,68.33
2022-12-11T10:51:57.724Z,71.03
2022-12-11T10:54:24.957Z,88.40
2022-12-11T10:56:51.790Z,56.83
2022-12-11T10:59:29.366Z,32.67
2022-12-11T11:01:56.184Z,2.53
2022-12-11T11:04:27.978Z,3.47
2022-12-11T11:07:03.312Z,5.57
2022-12-11T11:09:36.515Z,2.70
2022-12-11T11:12:07.872Z,1.97
2022-12-11T11:14:35.070Z,2.40
2022-12-11T11:17:01.765Z,2.27
2022-12-11T11:19:32.930Z,2.10
2022-12-11T11:22:01.656Z,3.70
2022-12-11T11:24:40.004Z,3.40
2022-12-11T11:27:32.976Z,2.30
2022-12-11T11:30:04.826Z,3.00
2022-12-11T11:32:34.556Z,3.97
2022-12-11T11:35:13.616Z,11.23
2022-12-11T11:37:41.595Z,7.00
2022-12-11T11:40:14.011Z,4.47
2022-12-11T11:42:47.343Z,2.50
2022-12-11T11:45:20.843Z,2.20
2022-12-11T11:48:11.658Z,2.20
2022-12-11T11:50:41.335Z,2.43
2022-12-11T11:53:28.241Z,3.20
2022-12-11T11:56:01.964Z,18.10
2022-12-11T11:58:37.206Z,3.37
2022-12-11T12:01:04.152Z,2.27
2022-12-11T12:03:30.871Z,2.50
2022-12-11T12:05:57.461Z,2.30
2022-12-11T12:08:33.084Z,2.37
2022-12-11T12:10:59.789Z,2.37
2022-12-11T12:13:50.313Z,2.80
2022-12-11T12:19:40.485Z,2.80
2022-12-11T12:22:28.096Z,2.27
2022-12-11T12:25:03.715Z,2.47
2022-12-11T12:27:53.875Z,2.47
2022-12-11T12:30:23.206Z,2.47
2022-12-11T12:32:55.340Z,2.53
2022-12-11T12:35:28.161Z,2.77
2022-12-11T12:38:01.899Z,3.10
2022-12-11T12:40:31.648Z,3.20
2022-12-11T12:43:07.444Z,3.93
2022-12-11T12:45:46.056Z,4.20
2022-12-11T12:48:12.744Z,4.00
2022-12-11T12:50:44.048Z,3.37
2022-12-11T12:53:16.233Z,2.70
2022-12-11T12:55:43.686Z,2.10
2022-12-11T12:58:43.020Z,2.07
2022-12-11T13:01:12.365Z,1.90
2022-12-11T13:03:51.338Z,1.87
2022-12-11T13:06:28.596Z,1.90
2022-12-11T13:08:55.406Z,1.97
2022-12-11T13:11:31.052Z,1.90
2022-12-11T13:14:05.451Z,2.07
2022-12-11T13:16:36.721Z,2.10
2022-12-11T13:19:16.362Z,2.20
2022-12-11T13:21:42.985Z,1.83
2022-12-11T13:24:18.326Z,1.73
2022-12-11T13:26:45.162Z,2.00
2022-12-11T13:29:30.526Z,2.10
2022-12-11T13:31:59.018Z,2.30
2022-12-11T13:34:28.272Z,2.40
2022-12-11T13:36:55.097Z,2.63
2022-12-11T13:39:27.513Z,2.10
2022-12-11T13:41:57.266Z,2.20
2022-12-11T13:44:26.425Z,2.33
2022-12-11T13:46:54.101Z,2.50
2022-12-11T13:49:22.317Z,2.57
2022-12-11T13:51:53.194Z,2.50
2022-12-11T13:54:19.710Z,6.03
2022-12-11T13:57:00.124Z,6.80
2022-12-11T13:59:29.800Z,7.50
2022-12-11T14:01:59.035Z,2.90
2022-12-11T14:04:25.996Z,2.73
2022-12-11T14:06:52.527Z,2.97
2022-12-11T14:09:20.649Z,2.87
2022-12-11T14:11:52.164Z,2.50
2022-12-11T14:14:23.625Z,2.50
2022-12-11T14:16:51.676Z,2.40
2022-12-11T14:19:19.979Z,2.37
2022-12-11T14:22:15.621Z,2.37
2022-12-11T14:24:48.139Z,2.07
2022-12-11T14:27:16.818Z,1.97
2022-12-11T14:29:43.251Z,2.00
2022-12-11T14:32:17.029Z,1.90
2022-12-11T14:34:45.553Z,2.03
2022-12-11T14:37:14.295Z,2.40
2022-12-11T14:40:04.878Z,2.37
2022-12-11T14:42:33.986Z,2.50
2022-12-11T14:45:07.669Z,2.77
2022-12-11T14:47:37.861Z,2.90
2022-12-11T14:50:27.534Z,2.63
2022-12-11T14:52:56.737Z,2.80
2022-12-11T14:55:28.134Z,2.93
2022-12-11T14:57:59.219Z,3.13
2022-12-11T15:00:26.126Z,3.40
2022-12-11T15:02:59.543Z,2.77
2022-12-11T15:05:26.316Z,6.87
2022-12-11T15:08:00.528Z,4.30
2022-12-11T15:10:31.419Z,3.43
2022-12-11T15:12:58.616Z,4.40
2022-12-11T15:15:25.976Z,3.30
2022-12-11T15:17:53.152Z,3.07
2022-12-11T15:20:29.995Z,3.50
2022-12-11T15:22:58.642Z,4.30
2022-12-11T15:25:27.443Z,5.43
2022-12-11T15:27:55.910Z,6.37
2022-12-11T15:30:26.888Z,8.27
2022-12-11T15:33:11.508Z,8.33
2022-12-11T15:35:39.288Z,8.13
2022-12-11T15:38:06.044Z,7.47
2022-12-11T15:40:32.653Z,5.83
2022-12-11T15:43:01.504Z,4.60
2022-12-11T15:45:29.140Z,4.23
2022-12-11T15:47:56.034Z,4.30
2022-12-11T15:50:23.159Z,4.10
2022-12-11T15:52:53.837Z,4.70
2022-12-11T15:55:22.461Z,4.47
2022-12-11T15:57:51.479Z,4.67
2022-12-11T16:00:19.421Z,5.87
2022-12-11T16:02:46.772Z,5.73
2022-12-11T16:05:14.099Z,6.47
2022-12-11T16:07:41.343Z,7.30
2022-12-11T16:10:11.609Z,6.90
2022-12-11T16:12:38.310Z,6.60
2022-12-11T16:15:05.151Z,7.30
2022-12-11T16:17:31.930Z,7.07
2022-12-11T16:19:58.768Z,7.63
2022-12-11T16:22:25.576Z,8.27
2022-12-11T16:24:55.750Z,8.33
2022-12-11T16:27:23.523Z,8.00
2022-12-11T16:29:50.284Z,7.00
2022-12-11T16:32:17.060Z,7.77
2022-12-11T16:34:43.727Z,6.90
2022-12-11T16:37:11.357Z,7.03
2022-12-11T16:39:38.517Z,7.80
2022-12-11T16:42:05.477Z,6.97
2022-12-11T16:44:32.233Z,5.53
2022-12-11T16:46:59.360Z,4.30
2022-12-11T16:49:25.998Z,4.10
2022-12-11T16:51:52.507Z,4.50
2022-12-11T16:54:18.979Z,5.37
2022-12-11T16:56:47.046Z,5.33
2022-12-11T16:59:13.889Z,6.93
2022-12-11T17:01:40.807Z,5.33
2022-12-11T17:04:07.705Z,4.87
2022-12-11T17:06:34.298Z,4.63
2022-12-11T17:09:01.132Z,5.30
2022-12-11T17:11:27.769Z,4.63
2022-12-11T17:13:55.242Z,4.67
2022-12-11T17:16:22.573Z,4.40
2022-12-11T17:18:49.242Z,3.80
2022-12-11T17:21:16.937Z,3.23
2022-12-11T17:23:43.467Z,2.60
2022-12-11T17:26:10.153Z,2.43
2022-12-11T17:28:37.305Z,3.23
2022-12-11T17:31:04.998Z,2.97
2022-12-11T17:33:31.550Z,3.53
2022-12-11T17:36:02.528Z,4.07
2022-12-11T17:38:29.428Z,3.13
2022-12-11T17:40:56.240Z,3.77
2022-12-11T17:43:22.944Z,5.00
2022-12-11T17:45:52.567Z,6.90
2022-12-11T17:48:22.427Z,6.37
2022-12-11T17:50:49.673Z,4.63
2022-12-11T17:53:16.908Z,3.93
2022-12-11T17:55:44.297Z,3.60
2022-12-11T17:58:11.869Z,4.40
2022-12-11T18:00:42.516Z,4.10
2022-12-11T18:03:09.799Z,4.00
2022-12-11T18:05:40.759Z,3.30
2022-12-11T18:08:07.706Z,3.20
2022-12-11T18:10:36.429Z,3.50
2022-12-11T18:13:03.563Z,3.60
2022-12-11T18:15:50.212Z,3.17
2022-12-11T18:18:17.003Z,3.57
2022-12-11T18:20:43.856Z,2.80
2022-12-11T18:23:10.663Z,2.80
2022-12-11T18:25:37.523Z,3.10
2022-12-11T18:28:04.516Z,4.60
2022-12-11T18:30:31.566Z,6.73
2022-12-11T18:32:58.534Z,8.63
2022-12-11T18:35:25.682Z,7.43
2022-12-11T18:37:53.818Z,6.70
2022-12-11T18:40:21.942Z,6.47
2022-12-11T18:42:49.716Z,7.10
2022-12-11T18:45:16.663Z,8.17
2022-12-11T18:47:43.349Z,5.20
2022-12-11T18:50:09.928Z,4.37
2022-12-11T18:52:36.687Z,4.50
2022-12-11T18:55:03.841Z,3.60
2022-12-11T18:57:30.665Z,3.90
2022-12-11T19:00:02.430Z,3.30
2022-12-11T19:02:49.088Z,4.17
2022-12-11T19:05:15.875Z,4.57
2022-12-11T19:07:42.667Z,4.93
2022-12-11T19:10:09.634Z,2.83
2022-12-11T19:12:37.752Z,3.33
2022-12-11T19:15:04.733Z,3.93
2022-12-11T19:17:31.471Z,3.60
2022-12-11T19:19:58.273Z,3.87
2022-12-11T19:22:25.119Z,2.80
2022-12-11T19:24:53.002Z,3.23
2022-12-11T19:27:19.919Z,2.57
2022-12-11T19:29:49.833Z,3.23
2022-12-11T19:32:16.605Z,2.83
2022-12-11T19:34:43.319Z,2.50
2022-12-11T19:37:29.966Z,2.90
2022-12-11T19:39:56.914Z,3.00
2022-12-11T19:42:23.772Z,3.10
2022-12-11T19:44:50.559Z,3.30
2022-12-11T19:47:17.566Z,3.00
2022-12-11T19:49:44.365Z,4.07
2022-12-11T19:52:11.301Z,3.77
2022-12-11T19:54:37.872Z,3.40
2022-12-11T19:57:04.592Z,3.80
2022-12-11T19:59:31.397Z,4.43
2022-12-11T20:01:58.213Z,3.83
2022-12-11T20:04:24.992Z,3.70
2022-12-11T20:06:51.779Z,3.40
2022-12-11T20:09:18.613Z,3.53
2022-12-11T20:11:45.993Z,3.30
2022-12-11T20:14:23.439Z,3.63
2022-12-11T20:19:37.585Z,3.97
2022-12-11T20:22:05.737Z,3.70
2022-12-11T20:24:32.565Z,4.10
2022-12-11T20:26:59.331Z,4.03
2022-12-11T20:29:26.125Z,4.07
2022-12-11T20:31:53.044Z,2.57
2022-12-11T20:34:20.283Z,2.90
2022-12-11T20:36:48.053Z,3.00
2022-12-11T20:39:16.284Z,2.47
2022-12-11T20:41:43.171Z,2.30
2022-12-11T20:44:09.975Z,2.37
2022-12-11T20:46:36.633Z,2.23
2022-12-11T20:49:03.678Z,2.70
2022-12-11T20:51:32.390Z,3.10
2022-12-11T20:53:59.706Z,2.67
2022-12-11T20:56:30.586Z,2.67
2022-12-11T20:58:57.679Z,2.53
2022-12-11T21:01:25.190Z,2.40
2022-12-11T21:03:53.621Z,2.70
2022-12-11T21:06:23.794Z,2.73
2022-12-11T21:08:50.506Z,3.10
2022-12-11T21:11:18.956Z,3.23
2022-12-11T21:13:45.672Z,3.37
2022-12-11T21:16:12.422Z,3.40
2022-12-11T21:18:39.896Z,3.70
2022-12-11T21:21:08.008Z,3.87
2022-12-11T21:23:34.947Z,3.50
2022-12-11T21:26:01.725Z,4.17
2022-12-11T21:28:34.991Z,3.63
2022-12-11T21:31:03.212Z,2.83
2022-12-11T21:33:29.778Z,3.00
2022-12-11T21:35:57.669Z,3.13
2022-12-11T21:38:24.776Z,3.13
2022-12-11T21:40:51.692Z,3.20
2022-12-11T21:43:18.578Z,2.97
2022-12-11T21:46:01.028Z,2.40
2022-12-11T21:48:28.902Z,2.40
2022-12-11T21:50:55.544Z,2.23
2022-12-11T21:53:22.268Z,2.13
2022-12-11T21:55:48.767Z,2.10
2022-12-11T21:58:15.731Z,1.83
2022-12-11T22:00:42.267Z,2.07
2022-12-11T22:03:09.141Z,1.80
2022-12-11T22:05:35.796Z,2.00
2022-12-11T22:08:05.777Z,2.20
2022-12-11T22:10:32.583Z,2.20
2022-12-11T22:12:59.201Z,2.03
2022-12-11T22:15:25.830Z,2.10
2022-12-11T22:17:52.304Z,2.27
2022-12-11T22:20:18.857Z,2.30
2022-12-11T22:22:46.712Z,1.90
2022-12-11T22:25:13.427Z,2.20
2022-12-11T22:27:40.087Z,2.33
2022-12-11T22:30:06.910Z,1.90
2022-12-11T22:32:33.336Z,2.40
2022-12-11T22:34:59.778Z,2.50
2022-12-11T22:37:26.296Z,2.50
2022-12-11T22:39:52.955Z,2.23
2022-12-11T22:42:19.460Z,2.30
2022-12-11T22:44:45.923Z,2.27
2022-12-11T22:47:12.465Z,2.60
2022-12-11T22:49:39.067Z,2.30
2022-12-11T22:52:05.522Z,2.50
2022-12-11T22:54:32.052Z,2.73
2022-12-11T22:56:58.560Z,5.80
2022-12-11T22:59:25.013Z,10.13
2022-12-11T23:01:51.538Z,6.23
2022-12-11T23:04:17.990Z,5.73
2022-12-11T23:06:44.400Z,2.57
2022-12-11T23:09:10.914Z,1.90
2022-12-11T23:11:38.423Z,1.57
2022-12-11T23:14:05.826Z,1.80
2022-12-11T23:16:32.316Z,1.60
2022-12-11T23:18:58.880Z,1.60
2022-12-11T23:21:26.236Z,1.60
2022-12-11T23:23:53.046Z,1.67
2022-12-11T23:26:19.919Z,1.60
2022-12-11T23:28:46.435Z,1.63
2022-12-11T23:31:13.367Z,1.90
2022-12-11T23:33:39.916Z,1.67
2022-12-11T23:36:06.475Z,1.50
2022-12-11T23:38:32.965Z,1.53
2022-12-11T23:41:01.173Z,1.70
2022-12-11T23:43:27.602Z,2.30
2022-12-11T23:45:54.123Z,1.90
2022-12-11T23:48:20.633Z,2.13
2022-12-11T23:50:47.181Z,2.10
2022-12-11T23:53:13.607Z,2.40
2022-12-11T23:55:41.433Z,1.80
2022-12-11T23:58:07.913Z,1.90
